createdAt,value
2022-09-07T00:01:41.736Z,100815.42
2022-09-07T00:06:42.857Z,100811.87
2022-09-07T00:11:44.135Z,100811.23
2022-09-07T00:16:46.894Z,100808.61
2022-09-07T00:21:48.026Z,100807.31
2022-09-07T00:26:49.595Z,100801.04
2022-09-07T00:31:50.833Z,100792.54
2022-09-07T00:36:52.492Z,100787.20
2022-09-07T00:41:53.673Z,100792.86
2022-09-07T00:46:54.885Z,100795.48
2022-09-07T00:51:58.773Z,100793.24
2022-09-07T00:57:00.069Z,100785.10
2022-09-07T01:02:01.779Z,100776.38
2022-09-07T01:07:04.930Z,100775.04
2022-09-07T01:12:06.595Z,100778.96
2022-09-07T01:17:13.632Z,100782.18
2022-09-07T01:22:36.670Z,100777.15
2022-09-07T01:27:56.698Z,100767.22
2022-09-07T01:33:19.470Z,100763.70
2022-09-07T01:38:39.253Z,100759.94
2022-09-07T01:43:59.707Z,100756.16
2022-09-07T01:49:22.600Z,100753.13
2022-09-07T01:54:41.332Z,100754.67
2022-09-07T02:00:03.546Z,100757.11
2022-09-07T02:05:13.871Z,100757.50
2022-09-07T02:10:25.773Z,100755.10
2022-09-07T02:15:38.286Z,100752.74
2022-09-07T02:20:45.522Z,100745.67
2022-09-07T02:25:54.400Z,100745.92
2022-09-07T02:30:55.648Z,100742.80
2022-09-07T02:35:57.007Z,100743.67
2022-09-07T02:41:00.592Z,100740.34
2022-09-07T02:46:26.631Z,100740.48
2022-09-07T02:51:39.904Z,100739.20
2022-09-07T02:56:51.910Z,100735.70
2022-09-07T03:02:02.145Z,100733.65
2022-09-07T03:07:13.362Z,100729.67
2022-09-07T03:12:14.830Z,100727.54
2022-09-07T03:17:16.328Z,100722.55
2022-09-07T03:22:17.425Z,100720.38
2022-09-07T03:27:18.519Z,100714.84
2022-09-07T03:32:19.642Z,100719.55
2022-09-07T03:37:21.072Z,100719.84
2022-09-07T03:42:22.541Z,100715.06
2022-09-07T03:47:23.647Z,100716.04
2022-09-07T03:52:25.078Z,100713.24
2022-09-07T03:57:26.116Z,100716.86
2022-09-07T04:02:27.379Z,100717.77
2022-09-07T04:07:28.506Z,100712.31
2022-09-07T04:12:29.590Z,100710.85
2022-09-07T04:17:30.731Z,100717.01
2022-09-07T04:22:31.905Z,100720.68
2022-09-07T04:27:33.054Z,100726.89
2022-09-07T04:32:34.561Z,100729.30
2022-09-07T04:37:35.762Z,100735.70
2022-09-07T04:42:37.907Z,100741.55
2022-09-07T04:47:39.121Z,100743.48
2022-09-07T04:52:40.254Z,100747.24
2022-09-07T04:57:41.549Z,100747.89
2022-09-07T05:02:42.887Z,100749.73
2022-09-07T05:07:43.975Z,100749.73
2022-09-07T05:12:45.081Z,100748.94
2022-09-07T05:17:46.335Z,100747.67
2022-09-07T05:22:47.685Z,100740.58
2022-09-07T05:27:48.974Z,100737.57
2022-09-07T05:32:50.958Z,100736.11
2022-09-07T05:37:52.080Z,100732.41
2022-09-07T05:42:53.248Z,100735.16
2022-09-07T05:47:55.018Z,100736.92
2022-09-07T05:52:59.386Z,100728.40
2022-09-07T05:58:00.728Z,100718.30
2022-09-07T06:03:02.945Z,100719.23
2022-09-07T06:08:04.780Z,100715.87
2022-09-07T06:13:06.116Z,100709.56
2022-09-07T06:18:07.654Z,100705.29
2022-09-07T06:23:14.209Z,100711.84
2022-09-07T06:28:15.781Z,100721.77
2022-09-07T06:33:19.647Z,100714.36
2022-09-07T06:38:23.676Z,100708.06
2022-09-07T06:43:24.939Z,100710.45
2022-09-07T06:48:27.418Z,100716.02
2022-09-07T06:53:34.313Z,100716.48
2022-09-07T06:58:39.193Z,100717.69
2022-09-07T07:03:45.442Z,100718.48
2022-09-07T07:08:47.171Z,100723.34
2022-09-07T07:13:48.361Z,100728.98
2022-09-07T07:18:51.634Z,100731.20
2022-09-07T07:23:53.133Z,100730.45
2022-09-07T07:29:03.871Z,100723.63
2022-09-07T07:34:05.652Z,100726.90
2022-09-07T07:39:07.617Z,100724.11
2022-09-07T07:44:08.871Z,100731.21
2022-09-07T07:49:09.991Z,100728.19
2022-09-07T07:54:11.131Z,100733.05
2022-09-07T07:59:15.610Z,100734.21
2022-09-07T08:04:17.064Z,100729.66
2022-09-07T08:09:18.205Z,100727.62
2022-09-07T08:14:19.308Z,100717.48
2022-09-07T08:19:20.449Z,100717.41
2022-09-07T08:24:21.986Z,100723.41
2022-09-07T08:29:23.333Z,100721.80
2022-09-07T08:34:24.566Z,100717.84
2022-09-07T08:39:25.954Z,100716.45
2022-09-07T08:44:48.871Z,100714.05
2022-09-07T08:49:58.288Z,100711.40
2022-09-07T08:55:27.109Z,100706.73
2022-09-07T09:00:29.208Z,100703.19
2022-09-07T09:06:02.013Z,100699.39
2022-09-07T09:11:06.836Z,100680.16
2022-09-07T09:16:22.063Z,100675.73
2022-09-07T09:21:23.613Z,100670.34
2022-09-07T09:26:28.185Z,100669.63
2022-09-07T09:31:35.388Z,100670.64
2022-09-07T09:37:03.654Z,100663.41
2022-09-07T09:42:11.128Z,100663.98
2022-09-07T09:47:33.223Z,100660.77
2022-09-07T09:52:43.940Z,100656.77
2022-09-07T10:08:36.407Z,100651.02
2022-09-07T10:13:54.086Z,100643.49
2022-09-07T10:18:57.999Z,100636.77
2022-09-07T10:24:13.577Z,100629.36
2022-09-07T10:29:36.015Z,100633.38
2022-09-07T10:35:16.411Z,100627.71
2022-09-07T10:40:27.269Z,100624.10
2022-09-07T10:45:34.229Z,100617.31
2022-09-07T10:50:47.583Z,100616.30
2022-09-07T10:56:26.229Z,100611.79
2022-09-07T11:01:49.482Z,100606.55
2022-09-07T11:06:56.926Z,100599.09
2022-09-07T11:12:04.939Z,100592.13
2022-09-07T11:17:14.921Z,100595.94
2022-09-07T11:22:30.451Z,100587.08
2022-09-07T11:27:40.124Z,100581.51
2022-09-07T11:32:51.003Z,100581.20
2022-09-07T11:37:58.705Z,100579.30
2022-09-07T11:43:12.925Z,100569.59
2022-09-07T11:48:20.279Z,100569.11
2022-09-07T11:53:26.271Z,100572.98
2022-09-07T11:59:00.553Z,100573.77
2022-09-07T12:04:17.954Z,100571.63
2022-09-07T12:09:44.133Z,100566.97
2022-09-07T12:15:10.144Z,100560.30
2022-09-07T12:20:14.631Z,100555.65
2022-09-07T12:25:18.233Z,100552.37
2022-09-07T12:30:19.340Z,100549.86
2022-09-07T12:35:39.642Z,100550.46
2022-09-07T12:41:00.566Z,100547.89
2022-09-07T12:46:02.510Z,100547.41
2022-09-07T13:02:21.956Z,100540.02
2022-09-07T13:07:42.119Z,100533.33
2022-09-07T13:12:55.238Z,100525.49
2022-09-07T13:17:58.421Z,100517.06
2022-09-07T13:23:20.978Z,100508.59
2022-09-07T13:28:31.384Z,100507.44
2022-09-07T13:33:35.269Z,100500.72
2022-09-07T13:38:41.982Z,100498.91
2022-09-07T13:43:48.622Z,100490.52
2022-09-07T13:48:57.247Z,100487.52
2022-09-07T13:54:23.333Z,100491.85
2022-09-07T13:59:28.366Z,100490.27
2022-09-07T14:04:49.591Z,100484.50
2022-09-07T14:10:12.518Z,100481.13
2022-09-07T14:15:20.444Z,100478.85
2022-09-07T14:20:24.209Z,100469.94
2022-09-07T14:25:25.435Z,100462.27
2022-09-07T14:30:32.522Z,100463.33
2022-09-07T14:35:37.633Z,100457.03
2022-09-07T14:40:39.069Z,100454.45
2022-09-07T14:45:41.643Z,100446.64
2022-09-07T14:50:54.023Z,100446.31
2022-09-07T14:56:10.632Z,100438.92
2022-09-07T15:12:33.012Z,100427.39
2022-09-07T15:17:43.125Z,100418.99
2022-09-07T15:22:50.007Z,100420.23
2022-09-07T15:27:51.373Z,100422.14
2022-09-07T15:32:54.546Z,100422.45
2022-09-07T15:38:04.987Z,100419.80
2022-09-07T15:43:20.073Z,100416.84
2022-09-07T15:48:28.502Z,100413.95
2022-09-07T15:58:55.202Z,100406.89
2022-09-07T16:03:58.583Z,100405.48
2022-09-07T16:09:00.603Z,100406.66
2022-09-07T16:14:03.454Z,100399.55
2022-09-07T16:19:07.385Z,100401.77
2022-09-07T16:24:09.535Z,100408.15
2022-09-07T16:29:11.968Z,100409.12
2022-09-07T16:34:18.855Z,100406.48
2022-09-07T16:39:20.127Z,100407.81
2022-09-07T16:44:22.690Z,100405.95
2022-09-07T16:49:23.944Z,100403.52
2022-09-07T16:54:25.769Z,100405.34
2022-09-07T16:59:27.609Z,100408.02
2022-09-07T17:04:29.376Z,100407.16
2022-09-07T17:09:31.271Z,100403.33
2022-09-07T17:14:34.070Z,100406.54
2022-09-07T17:19:39.351Z,100415.48
2022-09-07T17:24:41.131Z,100419.34
2022-09-07T17:29:43.336Z,100414.33
2022-09-07T17:34:44.711Z,100414.90
2022-09-07T17:39:48.314Z,100420.47
2022-09-07T17:44:53.712Z,100427.67
2022-09-07T17:49:55.678Z,100429.48
2022-09-07T17:55:00.580Z,100439.30
2022-09-07T18:00:11.992Z,100438.81
2022-09-07T18:05:16.019Z,100447.23
2022-09-07T18:10:17.794Z,100440.91
2022-09-07T18:15:22.773Z,100445.10
2022-09-07T18:20:24.442Z,100445.23
2022-09-07T18:25:27.921Z,100446.13
2022-09-07T18:30:30.615Z,100441.31
2022-09-07T18:35:31.792Z,100443.73
2022-09-07T18:40:38.302Z,100442.02
2022-09-07T18:45:39.753Z,100446.88
2022-09-07T18:50:42.862Z,100450.23
2022-09-07T18:55:44.116Z,100445.85
2022-09-07T19:00:46.918Z,100445.71
2022-09-07T19:05:50.369Z,100443.35
2022-09-07T19:10:52.248Z,100439.73
2022-09-07T19:15:53.723Z,100433.70
2022-09-07T19:20:54.995Z,100436.86
2022-09-07T19:26:03.774Z,100433.83
2022-09-07T19:31:06.099Z,100436.81
2022-09-07T19:36:07.844Z,100438.70
2022-09-07T19:41:13.779Z,100445.58
2022-09-07T19:46:22.710Z,100449.27
2022-09-07T19:51:25.925Z,100452.94
2022-09-07T19:56:27.196Z,100460.24
2022-09-07T20:01:30.264Z,100452.78
2022-09-07T20:06:33.505Z,100458.87
2022-09-07T20:11:35.660Z,100460.14
2022-09-07T20:16:38.600Z,100457.59
2022-09-07T20:21:39.857Z,100459.90
2022-09-07T20:26:41.075Z,100458.73
2022-09-07T20:31:43.357Z,100454.73
2022-09-07T20:36:44.686Z,100451.98
2022-09-07T20:41:46.224Z,100449.41
2022-09-07T20:46:47.482Z,100448.89
2022-09-07T20:51:48.972Z,100454.33
2022-09-07T20:56:50.056Z,100461.50
2022-09-07T21:01:51.308Z,100458.35
2022-09-07T21:06:52.753Z,100455.57
2022-09-07T21:11:57.135Z,100457.97
2022-09-07T21:16:58.430Z,100459.39
2022-09-07T21:21:59.594Z,100463.62
2022-09-07T21:27:00.732Z,100472.08
2022-09-07T21:32:02.553Z,100469.09
2022-09-07T21:37:06.817Z,100470.38
2022-09-07T21:42:08.141Z,100467.86
2022-09-07T21:47:09.811Z,100468.95
2022-09-07T21:52:10.914Z,100472.19
2022-09-07T21:57:12.080Z,100469.23
2022-09-07T22:02:13.222Z,100474.23
2022-09-07T22:07:14.671Z,100477.31
2022-09-07T22:12:16.240Z,100470.63
2022-09-07T22:17:17.370Z,100465.36
2022-09-07T22:22:18.509Z,100466.16
2022-09-07T22:27:19.767Z,100466.73
2022-09-07T22:32:21.226Z,100473.61
2022-09-07T22:37:22.386Z,100467.48
2022-09-07T22:42:23.928Z,100465.70
2022-09-07T22:47:25.307Z,100462.85
2022-09-07T22:52:26.752Z,100462.50
2022-09-07T22:57:27.884Z,100459.09
2022-09-07T23:02:29.071Z,100461.52
2022-09-07T23:07:30.191Z,100464.46
2022-09-07T23:12:31.685Z,100453.73
2022-09-07T23:17:33.209Z,100447.55
2022-09-07T23:22:34.240Z,100438.98
2022-09-07T23:27:35.942Z,100430.67
2022-09-07T23:32:37.081Z,100432.00
2022-09-07T23:37:38.258Z,100432.66
2022-09-07T23:42:39.488Z,100423.11
2022-09-07T23:47:40.896Z,100415.27
2022-09-07T23:52:42.009Z,100413.67
2022-09-07T23:57:43.276Z,100418.23
